Time;durP1;ratioP1;P1;durP2;ratioP2;P2;SDS_P1;SDS_P2;PMS_P1;PMS_P2;Temp;Humidity;BMP_temperature;BMP_pressure;BME280_temperature;BME280_humidity;BME280_pressure;Samples;Min_cycle;Max_cycle;Signal;HPM_P1;HPM_P2
2024/04/07 00:01:25;;;;;;;0.10;0.10;;;;;;;16.77;79.68;100697.81;5073410;28;20098;-50
2024/04/07 00:03:50;;;;;;;0.10;0.10;;;;;;;16.83;79.18;100702.13;5072346;28;20027;-50
2024/04/07 00:06:16;;;;;;;0.10;0.10;;;;;;;16.83;79.11;100720.34;5073627;28;20384;-51
2024/04/07 00:08:41;;;;;;;0.10;0.10;;;;;;;16.87;78.44;100723.84;5072727;28;20029;-51
2024/04/07 00:11:07;;;;;;;0.10;0.10;;;;;;;17.02;74.69;100733.44;5073597;28;20464;-51
2024/04/07 00:13:32;;;;;;;0.10;0.10;;;;;;;17.16;73.13;100734.31;5073514;28;20023;-51
2024/04/07 00:15:59;;;;;;;0.10;0.10;;;;;;;17.28;71.61;100721.28;5072895;28;20051;-52
2024/04/07 00:18:25;;;;;;;0.10;0.10;;;;;;;17.38;70.28;100722.16;5073212;28;20069;-51
2024/04/07 00:21:02;;;;;;;0.10;0.10;;;;;;;17.41;70.89;100727.38;5073495;28;20025;-50
2024/04/07 00:23:28;;;;;;;0.10;0.10;;;;;;;17.55;68.90;100721.28;5072564;28;20025;-51
2024/04/07 00:25:53;;;;;;;0.10;0.10;;;;;;;17.60;68.09;100728.22;5073505;28;20040;-51
2024/04/07 00:28:18;;;;;;;0.10;0.10;;;;;;;17.61;68.30;100736.91;5073477;28;20456;-51
2024/04/07 00:30:44;;;;;;;0.10;0.10;;;;;;;17.65;68.06;100742.97;5072424;28;20039;-49
2024/04/07 00:33:09;;;;;;;0.00;0.00;;;;;;;17.70;67.45;100736.91;5073090;28;20024;-52
2024/04/07 00:35:34;;;;;;;0.10;0.10;;;;;;;17.76;67.66;100749.91;5073120;28;20495;-50
2024/04/07 00:38:00;;;;;;;0.10;0.10;;;;;;;17.80;67.75;100765.56;5072632;28;20028;-51
2024/04/07 00:40:25;;;;;;;0.10;0.10;;;;;;;17.81;67.88;100762.09;5072968;28;20414;-51
2024/04/07 00:42:51;;;;;;;0.10;0.10;;;;;;;17.78;68.29;100792.50;5073082;28;20036;-50
2024/04/07 00:45:17;;;;;;;0.10;0.10;;;;;;;17.78;69.16;100795.09;5072291;28;20028;-50
2024/04/07 00:47:42;;;;;;;0.10;0.10;;;;;;;17.76;69.55;100814.22;5072710;28;20032;-51
2024/04/07 00:50:09;;;;;;;0.00;0.00;;;;;;;17.74;69.16;100809.00;5072669;28;20048;-50
2024/04/07 00:52:35;;;;;;;0.10;0.10;;;;;;;17.72;69.72;100791.63;5072041;28;20040;-51
2024/04/07 00:55:02;;;;;;;0.10;0.10;;;;;;;17.63;71.33;100784.69;5072791;28;20043;-51
2024/04/07 00:57:29;;;;;;;0.05;0.05;;;;;;;17.50;73.47;100783.81;5072478;28;20028;-51
2024/04/07 00:59:55;;;;;;;0.10;0.10;;;;;;;17.49;72.87;100776.00;5071979;28;20452;-51
2024/04/07 01:02:20;;;;;;;0.10;0.10;;;;;;;17.40;73.80;100798.59;5072417;28;20111;-51
2024/04/07 01:04:45;;;;;;;0.10;0.10;;;;;;;17.40;74.18;100824.66;5072370;28;20039;-51
2024/04/07 01:07:11;;;;;;;0.03;0.03;;;;;;;17.42;73.84;100822.03;5072717;28;20024;-51
2024/04/07 01:09:36;;;;;;;0.10;0.10;;;;;;;17.42;73.25;100833.31;5072555;28;20025;-51
2024/04/07 01:12:28;;;;;;;0.10;0.10;;;;;;;17.46;74.00;100859.41;5071770;28;20020;-51
2024/04/07 01:14:53;;;;;;;0.10;0.10;;;;;;;17.31;75.23;100845.44;5069084;28;20036;-51
2024/04/07 01:17:18;;;;;;;0.10;0.10;;;;;;;17.21;76.90;100833.28;5072671;28;20120;-51
2024/04/07 01:19:44;;;;;;;0.05;0.05;;;;;;;17.19;76.93;100858.47;5071554;28;20033;-51
2024/04/07 01:22:12;;;;;;;0.10;0.10;;;;;;;17.07;77.46;100862.78;5072453;28;20027;-51
2024/04/07 01:24:37;;;;;;;0.10;0.10;;;;;;;17.04;78.64;100867.09;5072331;28;20051;-51
2024/04/07 01:27:02;;;;;;;0.10;0.10;;;;;;;17.03;77.27;100866.25;5071740;28;20429;-50
2024/04/07 01:29:28;;;;;;;0.10;0.10;;;;;;;16.97;78.61;100863.59;5071985;28;20074;-51
2024/04/07 01:31:53;;;;;;;0.10;0.10;;;;;;;16.87;79.90;100886.09;5072515;28;20409;-50
2024/04/07 01:34:18;;;;;;;0.10;0.10;;;;;;;16.83;80.00;100868.72;5071893;28;20021;-50
2024/04/07 01:36:44;;;;;;;0.03;0.03;;;;;;;16.77;80.59;100864.38;5072144;28;20090;-50
2024/04/07 01:39:10;;;;;;;0.10;0.10;;;;;;;16.77;79.92;100866.97;5072229;28;20028;-52
2024/04/07 01:41:35;;;;;;;0.10;0.10;;;;;;;16.77;80.61;100851.34;5071325;28;20021;-51
2024/04/07 01:44:00;;;;;;;0.10;0.10;;;;;;;16.75;80.93;100892.13;5072089;28;20040;-51
2024/04/07 01:46:26;;;;;;;0.10;0.10;;;;;;;16.70;81.94;100883.41;5072079;28;20035;-51
2024/04/07 01:48:51;;;;;;;0.10;0.10;;;;;;;16.63;83.29;100889.47;5071630;28;20034;-49
2024/04/07 01:51:16;;;;;;;0.10;0.10;;;;;;;16.56;83.77;100930.16;5071923;28;20404;-50
2024/04/07 01:53:42;;;;;;;0.10;0.10;;;;;;;16.57;83.10;100923.25;5071986;28;20104;-51
2024/04/07 01:56:07;;;;;;;0.10;0.10;;;;;;;16.54;83.49;100908.50;5071161;28;20376;-51
2024/04/07 01:58:37;;;;;;;0.10;0.10;;;;;;;16.50;85.10;100929.25;5071799;28;20037;-52
2024/04/07 02:01:03;;;;;;;0.10;0.10;;;;;;;16.44;85.02;100943.97;5071485;28;20013;-50
2024/04/07 02:03:28;;;;;;;0.10;0.10;;;;;;;16.42;85.46;100956.13;5071815;28;20036;-51
2024/04/07 02:05:53;;;;;;;0.10;0.10;;;;;;;16.40;85.84;100982.97;5072086;28;20024;-51
2024/04/07 02:08:18;;;;;;;0.10;0.10;;;;;;;16.36;86.07;100984.69;5071228;28;20025;-51
2024/04/07 02:10:51;;;;;;;0.10;0.10;;;;;;;16.33;87.66;101005.44;5071735;28;20039;-50
2024/04/07 02:13:16;;;;;;;0.10;0.10;;;;;;;16.28;87.92;101009.72;5071818;28;20016;-51
2024/04/07 02:15:42;;;;;;;0.10;0.10;;;;;;;16.23;88.70;101001.91;5070819;28;20036;-51
2024/04/07 02:18:08;;;;;;;0.10;0.10;;;;;;;16.20;89.33;101020.06;5071967;28;20480;-51
2024/04/07 02:20:34;;;;;;;0.10;0.10;;;;;;;16.15;90.37;101007.88;5071583;28;20036;-51
2024/04/07 02:22:59;;;;;;;0.10;0.10;;;;;;;16.09;91.45;101019.13;5071150;28;20114;-51
2024/04/07 02:25:26;;;;;;;0.10;0.10;;;;;;;16.04;91.97;101011.25;5071561;28;20451;-51
2024/04/07 02:27:51;;;;;;;0.10;0.10;;;;;;;15.99;92.68;101014.69;5074043;28;20036;-48
2024/04/07 02:30:16;;;;;;;0.10;0.10;;;;;;;15.95;92.78;101027.63;5074936;28;20380;-50
2024/04/07 02:32:42;;;;;;;0.10;0.10;;;;;;;15.92;92.32;101047.50;5075477;28;20472;-51
2024/04/07 02:35:07;;;;;;;0.10;0.10;;;;;;;15.91;91.97;101051.00;5075458;28;20460;-51
2024/04/07 02:37:33;;;;;;;0.10;0.10;;;;;;;15.85;92.69;101043.13;5074449;28;20025;-49
2024/04/07 02:39:59;;;;;;;0.10;0.10;;;;;;;15.82;92.88;101035.31;5075503;28;20391;-51
2024/04/07 02:42:25;;;;;;;0.10;0.10;;;;;;;15.78;93.00;101029.16;5075153;28;20021;-51
2024/04/07 02:50:17;;;;;;;0.08;0.08;;;;;;;15.69;90.33;101024.72;5074427;28;20059;-51
2024/04/07 02:52:43;;;;;;;0.10;0.10;;;;;;;15.67;86.32;101031.63;5074990;28;20047;-51
2024/04/07 02:55:08;;;;;;;0.10;0.10;;;;;;;15.67;82.20;101036.81;5075016;28;20028;-51
2024/04/07 02:57:33;;;;;;;0.10;0.10;;;;;;;15.68;80.41;101033.38;5074314;28;20054;-51
2024/04/07 02:59:59;;;;;;;0.10;0.10;;;;;;;15.68;79.00;101038.56;5075207;28;20100;-50
2024/04/07 03:02:24;;;;;;;0.10;0.10;;;;;;;15.68;77.60;101046.38;5074833;28;20025;-51
2024/04/07 03:04:49;;;;;;;0.10;0.10;;;;;;;15.67;76.59;101047.22;5074416;28;20066;-51
2024/04/07 03:07:15;;;;;;;0.10;0.10;;;;;;;15.60;79.29;101050.59;5074828;28;20025;-51
2024/04/07 03:09:40;;;;;;;0.10;0.10;;;;;;;15.50;79.06;101049.59;5074629;28;20396;-50
2024/04/07 03:12:06;;;;;;;0.10;0.10;;;;;;;15.41;80.89;101050.34;5074303;28;20032;-51
2024/04/07 03:14:32;;;;;;;0.10;0.10;;;;;;;15.35;80.35;101052.91;5074600;28;20025;-51
2024/04/07 03:16:58;;;;;;;0.10;0.10;;;;;;;15.32;78.59;101050.25;5074920;28;20066;-51
2024/04/07 03:19:23;;;;;;;0.10;0.10;;;;;;;15.35;76.68;101045.13;5073667;28;20032;-51
2024/04/07 03:21:49;;;;;;;0.10;0.10;;;;;;;15.35;76.41;101029.53;5074711;28;20029;-51
2024/04/07 03:24:14;;;;;;;0.10;0.10;;;;;;;15.35;75.66;101029.53;5074778;28;20036;-50
2024/04/07 03:26:39;;;;;;;0.10;0.10;;;;;;;15.35;75.33;101034.72;5073572;28;20021;-50
2024/04/07 03:29:05;;;;;;;0.10;0.10;;;;;;;15.32;75.29;101039.84;5074437;28;20063;-51
2024/04/07 03:31:31;;;;;;;0.10;0.10;;;;;;;15.33;74.52;101052.00;5074459;28;20100;-50
2024/04/07 03:33:56;;;;;;;0.10;0.10;;;;;;;15.34;74.56;101042.47;5073495;28;20492;-51
2024/04/07 03:36:21;;;;;;;0.10;0.10;;;;;;;15.34;73.77;101038.16;5073926;28;20033;-51
2024/04/07 03:38:47;;;;;;;0.10;0.10;;;;;;;15.38;71.88;101039.94;5074280;28;20094;-50
2024/04/07 03:41:12;;;;;;;0.10;0.10;;;;;;;15.39;71.85;101026.13;5073744;28;20035;-51
2024/04/07 03:43:38;;;;;;;0.10;0.10;;;;;;;15.38;71.77;101019.16;5074226;28;20017;-51
2024/04/07 03:46:03;;;;;;;0.10;0.10;;;;;;;15.36;71.70;101004.41;5074244;28;20028;-48
2024/04/07 03:48:30;;;;;;;0.10;0.10;;;;;;;15.36;71.37;101005.28;5073267;28;20020;-50
2024/04/07 03:50:56;;;;;;;0.10;0.10;;;;;;;15.36;70.40;100997.50;5073921;28;20495;-51
2024/04/07 03:53:22;;;;;;;0.10;0.10;;;;;;;15.37;70.58;101007.03;5073960;28;20040;-51
2024/04/07 03:55:47;;;;;;;0.10;0.10;;;;;;;15.38;70.27;101013.97;5073535;28;20439;-51
2024/04/07 03:58:13;;;;;;;0.10;0.10;;;;;;;15.38;71.00;101000.13;5073944;28;20035;-51
2024/04/07 04:00:38;;;;;;;0.10;0.10;;;;;;;15.36;70.13;101000.09;5072839;28;20036;-50
2024/04/07 04:03:04;;;;;;;0.10;0.10;;;;;;;15.36;69.66;100987.09;5073804;28;20051;-50
2024/04/07 04:05:29;;;;;;;0.10;0.10;;;;;;;15.34;69.48;100975.84;5073898;28;20388;-51
2024/04/07 04:07:55;;;;;;;0.10;0.10;;;;;;;15.37;69.03;100981.06;5072693;28;20117;-50
2024/04/07 04:10:20;;;;;;;0.10;0.10;;;;;;;15.35;69.06;100982.78;5073447;28;20541;-49
2024/04/07 04:12:46;;;;;;;0.10;0.10;;;;;;;15.34;69.42;100986.22;5073953;28;20032;-51
2024/04/07 04:15:11;;;;;;;0.10;0.10;;;;;;;15.33;68.84;101002.66;5072866;28;20036;-51
2024/04/07 04:17:36;;;;;;;0.10;0.10;;;;;;;15.34;68.78;101000.91;5073320;28;20099;-51
2024/04/07 04:20:03;;;;;;;0.10;0.10;;;;;;;15.32;68.63;101024.28;5073820;28;20039;-50
2024/04/07 04:22:28;;;;;;;0.20;0.20;;;;;;;15.34;67.95;101017.41;5072532;28;20029;-51
2024/04/07 04:24:55;;;;;;;0.10;0.10;;;;;;;15.34;68.77;101025.19;5073656;28;20028;-51
2024/04/07 04:27:20;;;;;;;0.17;0.17;;;;;;;15.33;68.14;101018.25;5073196;28;20032;-50
2024/04/07 04:29:46;;;;;;;0.10;0.10;;;;;;;15.32;68.25;101019.09;5072831;28;20483;-51
2024/04/07 04:32:12;;;;;;;0.10;0.10;;;;;;;15.30;68.62;101031.19;5073347;28;20033;-51
2024/04/07 04:34:37;;;;;;;0.10;0.10;;;;;;;15.31;68.13;101022.53;5072986;28;20032;-51
2024/04/07 04:37:03;;;;;;;0.10;0.10;;;;;;;15.29;68.45;101026.84;5072431;28;20077;-51
2024/04/07 04:39:28;;;;;;;0.10;0.10;;;;;;;15.29;68.17;101019.06;5073060;28;20396;-50
2024/04/07 04:41:53;;;;;;;0.10;0.10;;;;;;;15.25;68.80;101001.69;5073259;28;20029;-50
2024/04/07 04:44:19;;;;;;;0.10;0.10;;;;;;;15.22;69.13;101027.59;5072290;28;20021;-50
2024/04/07 04:46:46;;;;;;;0.10;0.10;;;;;;;15.23;67.85;101021.56;5073026;28;20024;-51
2024/04/07 04:49:12;;;;;;;0.10;0.10;;;;;;;15.23;67.62;101024.16;5072517;28;20036;-51
2024/04/07 04:51:38;;;;;;;0.10;0.10;;;;;;;15.22;68.51;101028.50;5071691;28;20582;-51
2024/04/07 04:54:04;;;;;;;0.10;0.10;;;;;;;15.22;67.34;101048.38;5072932;28;20029;-47
2024/04/07 04:56:29;;;;;;;0.10;0.10;;;;;;;15.23;67.65;101051.00;5072709;28;20024;-51
2024/04/07 04:58:57;;;;;;;0.10;0.10;;;;;;;15.24;67.06;101039.75;5072151;28;20027;-51
2024/04/07 05:01:22;;;;;;;0.10;0.10;;;;;;;15.26;66.93;101034.56;5072433;28;20098;-51
2024/04/07 05:03:48;;;;;;;0.10;0.10;;;;;;;15.26;66.86;101037.16;5072647;28;20063;-51
2024/04/07 05:06:13;;;;;;;0.10;0.10;;;;;;;15.24;67.15;101042.34;5071773;28;20037;-51
2024/04/07 05:08:42;;;;;;;0.10;0.10;;;;;;;15.23;67.67;101055.31;5072288;28;20024;-51
2024/04/07 05:11:08;;;;;;;0.10;0.10;;;;;;;15.21;67.75;101059.59;5071938;28;20016;-51
2024/04/07 05:13:34;;;;;;;0.10;0.10;;;;;;;15.21;68.23;101057.00;5072400;28;20033;-50
2024/04/07 05:15:59;;;;;;;0.10;0.10;;;;;;;15.18;68.89;101068.22;5072387;28;20025;-51
2024/04/07 05:18:26;;;;;;;0.10;0.10;;;;;;;15.17;69.10;101073.41;5071405;28;20027;-50
2024/04/07 05:20:53;;;;;;;0.20;0.20;;;;;;;15.14;69.34;101071.63;5072395;28;20375;-51
2024/04/07 05:23:18;;;;;;;0.10;0.10;;;;;;;15.10;70.20;101073.31;5072541;28;20109;-51
2024/04/07 05:25:43;;;;;;;0.15;0.15;;;;;;;15.09;70.48;101074.19;5071631;28;20103;-50
2024/04/07 05:28:09;;;;;;;0.10;0.10;;;;;;;15.07;70.74;101065.50;5072169;28;20020;-51
2024/04/07 05:30:38;;;;;;;0.10;0.10;;;;;;;15.06;71.05;101063.75;5072104;28;20060;-52
2024/04/07 05:33:04;;;;;;;0.10;0.10;;;;;;;15.07;71.40;101081.06;5071520;28;20032;-48
2024/04/07 05:35:30;;;;;;;0.10;0.10;;;;;;;15.07;72.05;101075.88;5071948;28;20029;-51
2024/04/07 05:37:55;;;;;;;0.10;0.10;;;;;;;15.06;71.83;101074.13;5072618;28;20020;-48
2024/04/07 05:40:21;;;;;;;0.10;0.10;;;;;;;15.05;72.73;101080.16;5071331;28;20403;-51
2024/04/07 05:42:46;;;;;;;0.10;0.10;;;;;;;15.05;72.97;101082.75;5072425;28;20464;-51
2024/04/07 05:45:11;;;;;;;0.10;0.10;;;;;;;15.06;73.12;101081.03;5072174;28;20052;-51
2024/04/07 05:47:36;;;;;;;0.10;0.10;;;;;;;15.05;73.48;101100.06;5071274;28;20066;-51
2024/04/07 05:50:02;;;;;;;0.10;0.10;;;;;;;15.02;74.38;101098.28;5071932;28;20098;-51
2024/04/07 05:52:27;;;;;;;0.10;0.10;;;;;;;14.98;74.23;101096.50;5071783;28;20443;-51
2024/04/07 05:54:53;;;;;;;0.10;0.10;;;;;;;14.95;75.17;101099.03;5071383;28;20028;-51
2024/04/07 05:57:18;;;;;;;0.13;0.13;;;;;;;14.94;75.85;101105.97;5072301;28;20029;-51
2024/04/07 05:59:46;;;;;;;0.20;0.20;;;;;;;14.91;75.93;101112.81;5071849;28;20050;-49
2024/04/07 06:02:12;;;;;;;0.10;0.10;;;;;;;14.91;76.64;101118.00;5072240;28;20033;-51
2024/04/07 06:04:37;;;;;;;0.10;0.10;;;;;;;14.90;76.69;101113.66;5075897;28;20020;-51
2024/04/07 06:07:03;;;;;;;0.10;0.10;;;;;;;14.89;76.98;101115.38;5076337;28;20049;-51
2024/04/07 06:09:28;;;;;;;0.10;0.10;;;;;;;14.87;78.05;101131.78;5074994;28;20047;-50
2024/04/07 06:11:53;;;;;;;0.10;0.10;;;;;;;14.83;78.06;101128.25;5076018;28;20147;-50
2024/04/07 06:14:18;;;;;;;0.10;0.10;;;;;;;14.81;78.67;101133.44;5075141;28;20112;-51
2024/04/07 06:16:44;;;;;;;0.10;0.10;;;;;;;14.74;79.32;101135.91;5075625;28;20040;-51
2024/04/07 06:19:09;;;;;;;0.10;0.10;;;;;;;14.69;80.41;101143.59;5075716;28;20482;-51
2024/04/07 06:21:34;;;;;;;0.10;0.10;;;;;;;14.68;80.69;101154.84;5075023;28;20043;-52
2024/04/07 06:23:59;;;;;;;0.10;0.10;;;;;;;14.68;80.93;101144.47;5075887;28;20032;-52
2024/04/07 06:26:25;;;;;;;0.10;0.10;;;;;;;14.66;82.05;101151.31;5075503;28;20055;-51
2024/04/07 06:28:50;;;;;;;0.10;0.10;;;;;;;14.67;81.91;101153.09;5075067;28;20381;-51
2024/04/07 06:31:15;;;;;;;0.10;0.10;;;;;;;14.68;81.79;101144.47;5075491;28;20107;-51
2024/04/07 06:33:41;;;;;;;0.10;0.10;;;;;;;14.65;82.99;101150.47;5075430;28;20024;-51
2024/04/07 06:36:06;;;;;;;0.10;0.10;;;;;;;14.67;82.76;101147.91;5074286;28;20464;-51
2024/04/07 06:38:32;;;;;;;0.10;0.10;;;;;;;14.68;83.08;101153.94;5075230;28;20083;-52
2024/04/07 06:40:57;;;;;;;0.10;0.10;;;;;;;14.71;82.62;101149.69;5075510;28;20032;-51
2024/04/07 06:43:22;;;;;;;0.20;0.20;;;;;;;14.72;82.71;101146.25;5074322;28;20495;-51
2024/04/07 06:45:48;;;;;;;0.10;0.10;;;;;;;14.75;82.87;101141.09;5075412;28;20028;-51
2024/04/07 06:48:13;;;;;;;0.10;0.10;;;;;;;14.78;83.17;101148.97;5075064;28;20116;-50
2024/04/07 06:50:39;;;;;;;0.10;0.10;;;;;;;14.80;83.49;101160.22;5074229;28;20051;-51
2024/04/07 06:53:04;;;;;;;0.20;0.20;;;;;;;14.83;83.68;101162.00;5074990;28;20025;-50
2024/04/07 06:55:29;;;;;;;0.10;0.10;;;;;;;14.82;84.31;101168.91;5075102;28;20079;-51
2024/04/07 06:57:55;;;;;;;0.10;0.10;;;;;;;14.82;83.75;101160.25;5074460;28;20028;-51
2024/04/07 07:00:21;;;;;;;0.10;0.10;;;;;;;14.84;84.25;101153.38;5074732;28;20024;-50
2024/04/07 07:02:46;;;;;;;0.10;0.10;;;;;;;14.88;84.24;101172.47;5075032;28;20020;-50
2024/04/07 07:05:11;;;;;;;0.10;0.10;;;;;;;14.91;85.38;101172.50;5074285;28;20021;-51
2024/04/07 07:07:37;;;;;;;0.10;0.10;;;;;;;14.97;84.10;101172.63;5074787;28;20029;-51
2024/04/07 07:10:06;;;;;;;0.10;0.10;;;;;;;15.01;84.13;101169.22;5075018;28;20028;-51
2024/04/07 07:12:31;;;;;;;0.10;0.10;;;;;;;15.06;84.40;101175.34;5073389;28;20457;-50
2024/04/07 07:14:57;;;;;;;0.10;0.10;;;;;;;15.14;84.45;101178.97;5074763;28;20627;-51
2024/04/07 07:17:23;;;;;;;0.10;0.10;;;;;;;15.20;83.61;101174.72;5074203;28;20040;-51
2024/04/07 07:19:48;;;;;;;0.10;0.10;;;;;;;15.23;84.72;101192.94;5074277;28;20054;-47
2024/04/07 07:22:14;;;;;;;0.10;0.10;;;;;;;15.24;85.03;101197.28;5074546;28;20032;-48
2024/04/07 07:24:39;;;;;;;0.10;0.10;;;;;;;15.23;85.46;101204.19;5073782;28;20548;-47
2024/04/07 07:27:04;;;;;;;0.10;0.10;;;;;;;15.20;85.29;101201.53;5074457;28;20111;-48
2024/04/07 07:29:30;;;;;;;0.10;0.10;;;;;;;15.23;85.80;101196.38;5074399;28;20039;-51
2024/04/07 07:31:57;;;;;;;0.10;0.10;;;;;;;15.36;85.95;101197.47;5073597;28;20136;-47
2024/04/07 07:34:25;;;;;;;0.10;0.10;;;;;;;15.55;85.16;101208.16;5074195;28;20029;-48
2024/04/07 07:36:51;;;;;;;0.10;0.10;;;;;;;15.69;85.23;101210.94;5074374;28;20029;-51
2024/04/07 07:39:18;;;;;;;0.10;0.10;;;;;;;15.79;83.20;101205.03;5073702;28;20021;-48
2024/04/07 07:41:44;;;;;;;0.10;0.10;;;;;;;15.92;83.64;101206.97;5074269;28;20028;-46
2024/04/07 07:44:10;;;;;;;0.10;0.10;;;;;;;16.01;82.83;101210.53;5074145;28;20025;-48
2024/04/07 07:46:35;;;;;;;0.10;0.10;;;;;;;16.16;82.96;101222.88;5073246;28;20034;-48
2024/04/07 07:49:00;;;;;;;0.10;0.10;;;;;;;16.15;80.59;101215.91;5074133;28;20032;-47
2024/04/07 07:51:26;;;;;;;0.10;0.10;;;;;;;16.24;81.51;101213.41;5073999;28;20023;-48
2024/04/07 07:53:51;;;;;;;0.10;0.10;;;;;;;16.35;81.70;101223.97;5073511;28;20379;-46
2024/04/07 07:56:18;;;;;;;0.10;0.10;;;;;;;16.39;79.78;101229.22;5074079;28;20438;-50
2024/04/07 07:58:44;;;;;;;0.10;0.10;;;;;;;16.41;78.85;101235.31;5073859;28;20032;-51
2024/04/07 08:01:09;;;;;;;0.10;0.10;;;;;;;16.43;79.56;101238.78;5072992;28;20017;-47
2024/04/07 08:03:35;;;;;;;0.10;0.10;;;;;;;16.46;78.70;101245.75;5073955;28;20040;-51
2024/04/07 08:06:00;;;;;;;0.10;0.10;;;;;;;16.52;78.63;101251.03;5074556;28;20119;-52
2024/04/07 08:08:26;;;;;;;0.10;0.10;;;;;;;16.55;78.47;101247.59;5072758;28;20035;-51
2024/04/07 08:10:51;;;;;;;0.10;0.10;;;;;;;16.68;80.10;101244.28;5073797;28;20112;-47
2024/04/07 08:13:16;;;;;;;0.10;0.10;;;;;;;16.91;79.58;101241.06;5073772;28;20025;-47
2024/04/07 08:15:43;;;;;;;0.10;0.10;;;;;;;16.94;76.47;101251.53;5072503;28;20383;-51
2024/04/07 08:18:09;;;;;;;0.10;0.10;;;;;;;16.97;76.77;101251.53;5073489;28;20032;-52
2024/04/07 08:20:35;;;;;;;0.10;0.10;;;;;;;17.06;74.77;101238.59;5073233;28;20020;-52
2024/04/07 08:23:01;;;;;;;0.10;0.10;;;;;;;17.07;74.89;101258.59;5072551;28;20461;-51
2024/04/07 08:25:26;;;;;;;0.10;0.10;;;;;;;17.09;72.93;101256.88;5072362;28;20043;-51
2024/04/07 08:27:52;;;;;;;0.10;0.10;;;;;;;17.17;72.56;101253.47;5072906;28;20016;-51
2024/04/07 08:30:17;;;;;;;0.10;0.10;;;;;;;17.29;71.85;101253.56;5073199;28;20460;-51
2024/04/07 08:32:43;;;;;;;0.10;0.10;;;;;;;17.33;71.07;101260.53;5073256;28;20046;-50
2024/04/07 08:35:09;;;;;;;0.10;0.10;;;;;;;17.30;70.27;101254.44;5072363;28;20075;-51
2024/04/07 08:37:34;;;;;;;0.10;0.10;;;;;;;17.13;69.62;101255.16;5073120;28;20036;-51
2024/04/07 08:39:59;;;;;;;0.10;0.10;;;;;;;17.04;68.94;101245.56;5073037;28;20020;-50
2024/04/07 08:42:28;;;;;;;0.10;0.10;;;;;;;17.18;70.32;101256.06;5072092;28;20518;-51
2024/04/07 08:44:55;;;;;;;0.10;0.10;;;;;;;17.32;70.61;101250.13;5072905;28;20039;-51
2024/04/07 08:47:22;;;;;;;0.10;0.10;;;;;;;17.44;70.66;101255.41;5072783;28;20024;-47
2024/04/07 08:49:51;;;;;;;0.10;0.10;;;;;;;17.52;70.11;101260.69;5071782;28;20089;-49
2024/04/07 08:52:18;;;;;;;0.10;0.10;;;;;;;17.65;70.11;101261.66;5072958;28;20062;-50
2024/04/07 08:54:44;;;;;;;0.10;0.10;;;;;;;17.65;68.70;101257.31;5072547;28;20433;-50
2024/04/07 08:57:09;;;;;;;0.10;0.10;;;;;;;17.72;67.61;101258.22;5072047;28;20508;-51
2024/04/07 08:59:35;;;;;;;0.03;0.03;;;;;;;17.66;67.24;101266.84;5072257;28;20031;-51
2024/04/07 09:02:04;;;;;;;0.10;0.10;;;;;;;17.75;68.12;101273.88;5073006;28;20107;-51
2024/04/07 09:04:34;;;;;;;0.10;0.10;;;;;;;17.94;68.14;101260.13;5072017;28;20075;-51
2024/04/07 09:07:03;;;;;;;0.10;0.10;;;;;;;17.96;65.70;101273.19;5072813;28;20028;-51
2024/04/07 09:09:28;;;;;;;0.08;0.08;;;;;;;18.09;66.22;101266.31;5072554;28;20028;-51
2024/04/07 09:11:54;;;;;;;0.10;0.10;;;;;;;18.06;66.88;101275.00;5071777;28;20020;-51
2024/04/07 09:14:19;;;;;;;0.00;0.00;;;;;;;18.17;66.33;101264.59;5072425;28;20032;-48
2024/04/07 09:16:44;;;;;;;0.10;0.10;;;;;;;18.19;64.04;101262.00;5072434;28;20487;-49
2024/04/07 09:19:11;;;;;;;0.10;0.10;;;;;;;18.33;63.43;101265.53;5071533;28;20020;-50
2024/04/07 09:21:36;;;;;;;0.00;0.00;;;;;;;18.43;62.90;101264.69;5071935;28;20054;-51
2024/04/07 09:24:02;;;;;;;0.10;0.10;;;;;;;18.47;62.20;101269.94;5072370;28;20028;-51
2024/04/07 09:26:27;;;;;;;0.00;0.00;;;;;;;18.36;60.79;101259.44;5071205;28;20024;-49
2024/04/07 09:28:53;;;;;;;0.10;0.10;;;;;;;18.29;59.94;101263.78;5072636;28;20151;-51
2024/04/07 09:31:19;;;;;;;0.10;0.10;;;;;;;18.41;60.77;101261.22;5071473;28;20036;-51
2024/04/07 09:33:47;;;;;;;0.10;0.10;;;;;;;18.48;59.82;101263.88;5072199;28;20384;-51
2024/04/07 09:36:12;;;;;;;;;;;;;;;18.70;60.05;101262.19;5072347;28;20040;-51
2024/04/07 09:38:37;;;;;;;0.00;0.00;;;;;;;18.71;59.38;101262.19;5071397;28;19913;-51
2024/04/07 09:41:03;;;;;;;0.10;0.10;;;;;;;18.59;58.66;101267.34;5072172;28;20278;-50
2024/04/07 09:43:30;;;;;;;0.00;0.00;;;;;;;18.71;57.68;101263.94;5072159;28;20086;-50
2024/04/07 09:45:56;;;;;;;0.10;0.10;;;;;;;18.82;56.88;101261.34;5071591;28;20082;-50
2024/04/07 09:48:24;;;;;;;0.00;0.00;;;;;;;18.80;57.01;101273.50;5071777;28;20025;-50
2024/04/07 09:51:04;;;;;;;0.10;0.10;;;;;;;19.10;56.82;101270.13;5072091;28;20045;-50
2024/04/07 09:53:45;;;;;;;0.10;0.10;;;;;;;19.18;55.40;101270.13;5071273;28;20070;-50
2024/04/07 09:56:11;;;;;;;0.10;0.10;;;;;;;19.38;52.64;101252.72;5072100;28;20041;-50
2024/04/07 09:58:38;;;;;;;0.00;0.00;;;;;;;19.73;52.66;101264.00;5071984;28;20070;-50
2024/04/07 10:01:04;;;;;;;0.00;0.00;;;;;;;19.97;51.53;101259.63;5071288;28;20411;-46
2024/04/07 10:03:31;;;;;;;0.10;0.10;;;;;;;19.83;48.85;101249.19;5071551;28;20480;-49
2024/04/07 10:05:56;;;;;;;0.10;0.10;;;;;;;19.65;50.53;101244.81;5071631;28;20041;-50
2024/04/07 10:08:22;;;;;;;0.03;0.03;;;;;;;19.77;50.05;101254.38;5070851;28;20029;-49
2024/04/07 10:10:47;;;;;;;0.00;0.00;;;;;;;19.73;49.13;101251.78;5072239;28;20082;-50
2024/04/07 10:13:17;;;;;;;0.00;0.00;;;;;;;20.05;49.00;101244.75;5071977;28;20024;-50
2024/04/07 10:15:48;;;;;;;0.00;0.00;;;;;;;20.26;46.89;101259.53;5071118;28;20032;-50
2024/04/07 10:18:17;;;;;;;0.00;0.00;;;;;;;20.47;46.56;101255.94;5071718;28;20059;-49
2024/04/07 10:20:43;;;;;;;0.00;0.00;;;;;;;20.51;46.29;101259.41;5070894;28;20119;-50
2024/04/07 10:23:12;;;;;;;0.10;0.10;;;;;;;20.71;44.58;101247.09;5071915;28;20104;-50
2024/04/07 10:25:45;;;;;;;0.00;0.00;;;;;;;20.78;44.75;101253.16;5071786;28;20021;-49
2024/04/07 10:28:10;;;;;;;0.00;0.00;;;;;;;20.94;43.44;101253.97;5070653;28;20020;-48
2024/04/07 10:30:35;;;;;;;0.00;0.00;;;;;;;21.24;43.68;101262.47;5071534;28;20384;-49
2024/04/07 10:33:02;;;;;;;0.00;0.00;;;;;;;21.52;43.34;101254.34;5071599;28;20027;-49
2024/04/07 10:35:27;;;;;;;0.00;0.00;;;;;;;22.07;43.72;101238.94;5070839;28;20419;-50
2024/04/07 10:37:53;;;;;;;0.00;0.00;;;;;;;22.44;39.97;101248.97;5071933;28;20017;-49
2024/04/07 10:40:18;;;;;;;0.00;0.00;;;;;;;22.62;39.20;101256.63;5072026;28;20024;-50
2024/04/07 10:42:44;;;;;;;0.00;0.00;;;;;;;22.88;38.91;101247.50;5070659;28;20016;-49
2024/04/07 10:45:11;;;;;;;0.00;0.00;;;;;;;22.80;38.54;101246.72;5071511;28;20024;-50
2024/04/07 10:47:37;;;;;;;0.00;0.00;;;;;;;22.60;37.57;101229.50;5071600;28;20063;-50
2024/04/07 10:50:04;;;;;;;0.00;0.00;;;;;;;22.52;37.59;101247.16;5074297;28;20079;-50
2024/04/07 10:52:31;;;;;;;0.00;0.00;;;;;;;22.48;38.14;101251.56;5075288;28;20017;-50
2024/04/07 10:54:58;;;;;;;0.00;0.00;;;;;;;22.46;37.82;101252.47;5074976;28;20484;-50
2024/04/07 10:57:23;;;;;;;0.00;0.00;;;;;;;22.49;38.11;101247.16;5073988;28;20873;-50
2024/04/07 10:59:48;;;;;;;0.00;0.00;;;;;;;22.81;37.20;101237.97;5075146;28;20024;-49
2024/04/07 11:02:14;;;;;;;0.00;0.00;;;;;;;22.80;36.48;101246.72;5074844;28;20021;-49
2024/04/07 11:04:41;;;;;;;0.00;0.00;;;;;;;22.87;37.61;101247.53;5074100;28;20032;-50
2024/04/07 11:07:06;;;;;;;0.00;0.00;;;;;;;23.22;36.99;101249.59;5075052;28;20029;-50
2024/04/07 11:09:32;;;;;;;0.00;0.00;;;;;;;23.43;37.41;101239.63;5074905;28;20031;-49
2024/04/07 11:11:59;;;;;;;0.00;0.00;;;;;;;23.09;37.37;101248.91;5074175;28;20029;-49
2024/04/07 11:14:27;;;;;;;0.00;0.00;;;;;;;22.92;37.62;101246.56;5074468;28;20024;-49
2024/04/07 11:17:00;;;;;;;0.00;0.00;;;;;;;22.82;37.57;101244.97;5074044;28;20028;-49
2024/04/07 11:19:25;;;;;;;0.00;0.00;;;;;;;23.37;37.42;101259.00;5074710;28;20063;-50
2024/04/07 11:21:52;;;;;;;0.00;0.00;;;;;;;23.47;37.02;101254.44;5075060;28;20064;-50
2024/04/07 11:24:18;;;;;;;0.00;0.00;;;;;;;24.19;36.63;101254.84;5073919;28;20514;-49